Time;durP1;ratioP1;P1;durP2;ratioP2;P2;SDS_P1;SDS_P2;PMS_P1;PMS_P2;Temp;Humidity;BMP_temperature;BMP_pressure;BME280_temperature;BME280_humidity;BME280_pressure;Samples;Min_cycle;Max_cycle;Signal;HPM_P1;HPM_P2
2023/05/28 16:35:05;;;;;;;6.20;2.17;;;24.30;90.50;;;;;;4966691;23;20246;-72
2023/05/28 16:37:32;;;;;;;2.42;1.60;;;24.00;90.50;;;;;;4972709;28;20286;-73
2023/05/28 16:39:59;;;;;;;3.65;2.00;;;24.00;90.90;;;;;;4965155;28;20243;-73
2023/05/28 16:42:27;;;;;;;2.75;1.90;;;24.10;89.80;;;;;;4956322;28;20235;-73
2023/05/28 16:44:54;;;;;;;2.75;1.58;;;24.20;89.40;;;;;;4956317;29;20294;-73
2023/05/28 16:47:21;;;;;;;2.58;1.70;;;24.30;90.00;;;;;;4956253;28;20271;-74
2023/05/28 16:49:48;;;;;;;4.97;2.10;;;24.40;89.30;;;;;;4956048;28;20214;-73
2023/05/28 16:52:17;;;;;;;4.60;1.90;;;24.20;90.40;;;;;;4959667;28;20224;-73
2023/05/28 16:54:45;;;;;;;4.63;1.92;;;24.20;90.30;;;;;;4955651;28;20200;-72
2023/05/28 16:57:12;;;;;;;3.80;1.52;;;24.20;90.80;;;;;;4956159;28;20218;-72
2023/05/28 16:59:39;;;;;;;3.67;2.03;;;24.10;91.40;;;;;;4955894;29;20249;-72
2023/05/28 17:02:06;;;;;;;5.43;1.95;;;24.10;92.00;;;;;;4962272;28;20314;-71
2023/05/28 17:04:33;;;;;;;6.28;2.45;;;23.90;92.30;;;;;;4958202;28;20223;-72
2023/05/28 17:07:00;;;;;;;5.10;2.15;;;24.00;92.40;;;;;;4955754;28;20667;-71
2023/05/28 17:09:28;;;;;;;3.13;1.67;;;23.90;92.50;;;;;;4955704;28;20204;-71
2023/05/28 17:11:55;;;;;;;4.68;2.42;;;23.90;92.70;;;;;;4955707;28;20232;-71
2023/05/28 17:14:22;;;;;;;5.88;1.88;;;23.90;92.90;;;;;;4955406;28;20671;-71
2023/05/28 17:16:49;;;;;;;2.75;1.35;;;24.00;92.50;;;;;;4955379;28;20310;-72
2023/05/28 17:19:16;;;;;;;6.00;1.65;;;24.00;92.60;;;;;;4955512;29;20239;-72
2023/05/28 17:21:44;;;;;;;4.28;1.77;;;24.00;92.60;;;;;;4955099;29;20228;-74
2023/05/28 17:24:19;;;;;;;2.97;1.52;;;23.90;92.90;;;;;;5090962;28;21077;-74
2023/05/28 17:26:46;;;;;;;4.70;1.80;;;23.90;92.90;;;;;;5090636;28;20695;-75
2023/05/28 17:29:13;;;;;;;6.22;1.67;;;23.80;93.10;;;;;;5085955;28;20198;-73
2023/05/28 17:31:40;;;;;;;6.90;1.42;;;23.70;93.00;;;;;;5085555;28;20223;-74
2023/05/28 17:34:08;;;;;;;3.92;1.65;;;23.80;93.00;;;;;;5089937;28;20740;-73
2023/05/28 17:36:36;;;;;;;3.47;1.80;;;23.70;93.30;;;;;;5089994;28;20256;-74
2023/05/28 17:39:03;;;;;;;4.63;1.92;;;23.60;93.20;;;;;;5086120;28;20210;-74
2023/05/28 17:41:32;;;;;;;2.97;1.50;;;23.70;92.90;;;;;;5089998;28;20283;-73
2023/05/28 17:44:01;;;;;;;4.50;1.60;;;23.60;93.20;;;;;;5089646;28;20235;-74
2023/05/28 17:46:31;;;;;;;4.10;1.40;;;23.30;93.20;;;;;;5089862;28;20203;-74
2023/05/28 17:48:58;;;;;;;6.95;2.08;;;23.10;93.50;;;;;;5085310;28;20195;-74
2023/05/28 17:51:25;;;;;;;4.80;1.48;;;23.20;93.30;;;;;;5069757;28;20224;-73
2023/05/28 17:53:52;;;;;;;3.72;1.45;;;23.20;93.60;;;;;;5070291;28;20221;-74
2023/05/28 17:56:22;;;;;;;2.25;1.30;;;23.10;93.50;;;;;;5089995;28;20284;-75
2023/05/28 17:58:51;;;;;;;3.10;1.42;;;23.00;93.60;;;;;;5089261;28;20203;-74
2023/05/28 18:01:18;;;;;;;3.35;1.40;;;22.70;93.30;;;;;;5069238;28;20251;-76
2023/05/28 18:03:46;;;;;;;3.88;1.63;;;22.70;93.10;;;;;;5067569;28;20223;-73
2023/05/28 18:06:12;;;;;;;3.17;1.58;;;22.60;93.10;;;;;;5073980;28;20299;-73
2023/05/28 18:08:39;;;;;;;3.78;1.88;;;22.60;93.10;;;;;;5072938;28;20217;-73
2023/05/28 18:11:06;;;;;;;5.55;1.63;;;22.60;92.80;;;;;;5086440;28;20626;-74
2023/05/28 18:13:33;;;;;;;3.20;1.30;;;22.70;92.80;;;;;;5080082;28;20267;-73
2023/05/28 18:16:01;;;;;;;3.70;1.80;;;22.60;92.60;;;;;;5076179;28;20204;-73
2023/05/28 18:18:28;;;;;;;5.20;1.52;;;22.50;92.50;;;;;;5072078;28;20204;-73
2023/05/28 18:20:55;;;;;;;2.50;1.35;;;22.50;92.70;;;;;;5079313;28;20715;-71
2023/05/28 18:23:24;;;;;;;4.18;1.73;;;22.40;93.00;;;;;;5068266;28;20409;-73
2023/05/28 18:25:50;;;;;;;3.63;1.60;;;22.50;92.50;;;;;;5086533;28;20231;-73
2023/05/28 18:28:17;;;;;;;3.28;1.45;;;22.40;92.60;;;;;;5079167;28;20215;-73
2023/05/28 18:30:44;;;;;;;4.18;1.55;;;22.50;92.50;;;;;;5086019;28;20667;-73
2023/05/28 18:33:12;;;;;;;2.88;1.70;;;22.50;92.50;;;;;;5077340;28;20206;-73
2023/05/28 18:35:39;;;;;;;3.47;1.42;;;22.40;92.90;;;;;;5058198;28;20199;-73
2023/05/28 18:38:06;;;;;;;3.60;1.95;;;22.30;93.50;;;;;;5070581;28;20598;-72
2023/05/28 18:40:33;;;;;;;4.05;1.63;;;22.10;93.40;;;;;;5069382;28;20295;-73
2023/05/28 18:43:01;;;;;;;5.82;2.10;;;22.00;93.60;;;;;;5070926;28;20231;-73
2023/05/28 18:45:28;;;;;;;5.28;1.83;;;21.90;94.10;;;;;;5069102;28;20212;-73
2023/05/28 18:47:55;;;;;;;3.47;1.60;;;21.90;94.10;;;;;;5069703;28;20298;-73
2023/05/28 18:50:23;;;;;;;3.90;1.95;;;21.80;94.20;;;;;;5068351;28;20200;-73
2023/05/28 18:52:50;;;;;;;5.13;1.90;;;21.80;94.50;;;;;;5067868;28;20550;-73
2023/05/28 18:55:17;;;;;;;4.03;1.65;;;21.90;94.50;;;;;;5068665;28;20207;-72
2023/05/28 18:57:44;;;;;;;3.10;1.80;;;21.90;94.50;;;;;;5066185;28;20623;-73
2023/05/28 19:00:12;;;;;;;4.05;1.88;;;21.90;94.70;;;;;;5067459;28;20203;-73
2023/05/28 19:02:38;;;;;;;3.47;1.98;;;21.90;94.40;;;;;;5064302;28;20577;-73
2023/05/28 19:05:06;;;;;;;4.82;2.20;;;22.10;94.80;;;;;;5060022;28;20208;-72
2023/05/28 19:07:34;;;;;;;4.20;2.30;;;22.00;95.70;;;;;;5063647;28;20569;-72
2023/05/28 19:10:01;;;;;;;6.15;2.10;;;21.60;96.80;;;;;;5063565;28;20206;-72
2023/05/28 19:12:28;;;;;;;4.85;2.30;;;21.60;97.00;;;;;;5072114;28;20310;-71
2023/05/28 19:14:55;;;;;;;4.93;2.30;;;21.30;97.50;;;;;;5059900;28;20208;-72
2023/05/28 19:17:22;;;;;;;4.88;2.10;;;21.30;97.70;;;;;;5072444;28;20200;-72
2023/05/28 19:19:49;;;;;;;5.10;1.98;;;21.30;98.00;;;;;;5069810;28;20215;-72
2023/05/28 19:22:15;;;;;;;4.25;2.63;;;21.00;98.00;;;;;;5070288;28;20237;-72
2023/05/28 19:24:44;;;;;;;5.57;2.30;;;21.00;98.10;;;;;;5065335;28;20601;-71
2023/05/28 19:27:10;;;;;;;4.30;2.30;;;20.80;98.60;;;;;;5068799;28;20202;-72
2023/05/28 19:29:37;;;;;;;3.50;2.08;;;20.80;98.50;;;;;;5066658;28;20326;-72
2023/05/28 19:32:05;;;;;;;3.58;2.00;;;20.70;98.90;;;;;;5069788;28;20219;-72
2023/05/28 19:34:32;;;;;;;3.60;1.63;;;20.70;99.10;;;;;;5062143;28;20207;-72
2023/05/28 19:36:59;;;;;;;3.88;1.80;;;20.50;99.70;;;;;;5066255;28;20213;-73
2023/05/28 19:39:25;;;;;;;3.63;1.80;;;20.30;99.90;;;;;;5063177;28;20203;-72
2023/05/28 19:41:56;;;;;;;5.82;1.92;;;20.20;99.90;;;;;;5062557;28;20714;-72
2023/05/28 19:44:23;;;;;;;2.07;1.40;;;20.10;99.90;;;;;;5058993;28;20234;-72
2023/05/28 19:46:50;;;;;;;5.53;2.00;;;19.90;99.90;;;;;;5062318;28;20210;-73
2023/05/28 19:49:16;;;;;;;7.33;1.90;;;19.80;99.90;;;;;;5071933;28;20298;-73
2023/05/28 19:51:43;;;;;;;4.10;1.60;;;19.70;99.90;;;;;;5060860;28;20644;-74
2023/05/28 19:54:12;;;;;;;4.47;1.63;;;19.60;99.90;;;;;;5072414;28;20203;-73
2023/05/28 19:56:39;;;;;;;4.43;2.10;;;19.50;99.90;;;;;;5057571;28;20270;-73
2023/05/28 19:59:07;;;;;;;3.63;2.07;;;19.30;99.90;;;;;;5070852;28;20624;-72
2023/05/28 20:01:34;;;;;;;5.27;1.70;;;19.30;99.90;;;;;;5065739;28;20220;-72
2023/05/28 20:04:01;;;;;;;3.20;1.33;;;19.20;99.90;;;;;;5070944;28;20228;-72
2023/05/28 20:06:28;;;;;;;4.17;1.80;;;19.20;99.90;;;;;;5062555;28;20210;-73
2023/05/28 20:08:55;;;;;;;3.17;1.60;;;19.10;99.90;;;;;;5069784;28;20291;-73
2023/05/28 20:11:22;;;;;;;4.97;1.93;;;19.10;99.90;;;;;;5062057;28;20297;-73
2023/05/28 20:13:49;;;;;;;9.23;1.90;;;19.00;99.90;;;;;;5065965;28;20200;-72
2023/05/28 20:16:20;;;;;;;4.47;1.90;;;18.90;99.90;;;;;;5062742;28;20204;-72
2023/05/28 20:18:46;;;;;;;3.17;1.77;;;18.80;99.90;;;;;;5055838;28;20569;-73
2023/05/28 20:21:14;;;;;;;3.03;1.40;;;18.60;99.90;;;;;;5054991;28;20638;-73
2023/05/28 20:23:41;;;;;;;9.20;1.93;;;18.60;99.90;;;;;;5067831;28;20632;-73
2023/05/28 20:26:07;;;;;;;3.63;1.57;;;18.50;99.90;;;;;;5067807;28;20203;-72
2023/05/28 20:28:34;;;;;;;3.60;1.67;;;18.50;99.90;;;;;;5064568;28;20298;-72
2023/05/28 20:31:01;;;;;;;5.60;2.30;;;18.40;99.90;;;;;;5068215;28;20569;-72
2023/05/28 20:33:30;;;;;;;5.60;2.03;;;18.30;99.90;;;;;;5060548;28;20211;-73
2023/05/28 20:35:59;;;;;;;4.20;1.83;;;18.20;99.90;;;;;;5060586;28;20212;-72
2023/05/28 20:38:26;;;;;;;5.57;1.40;;;18.10;99.90;;;;;;5065634;28;20210;-73
2023/05/28 20:40:54;;;;;;;4.70;2.10;;;18.10;99.90;;;;;;5069111;28;20231;-73
2023/05/28 20:43:21;;;;;;;3.03;1.40;;;18.10;99.90;;;;;;5064480;28;20289;-73
2023/05/28 20:45:49;;;;;;;4.03;1.57;;;18.10;99.90;;;;;;5067274;28;20221;-72
2023/05/28 20:48:16;;;;;;;5.33;1.53;;;17.90;99.90;;;;;;5063207;28;20666;-72
2023/05/28 20:50:44;;;;;;;4.17;1.90;;;17.80;99.90;;;;;;5066926;28;20264;-72
2023/05/28 20:53:11;;;;;;;6.63;2.23;;;17.70;99.90;;;;;;5056842;28;20208;-73
2023/05/28 20:55:37;;;;;;;6.60;1.90;;;17.60;99.90;;;;;;5070400;28;20195;-73
2023/05/28 20:58:04;;;;;;;6.60;1.73;;;17.60;99.90;;;;;;5072906;28;20207;-73
2023/05/28 21:00:31;;;;;;;5.07;1.77;;;17.60;99.90;;;;;;5072836;28;20206;-73
2023/05/28 21:03:01;;;;;;;6.80;1.90;;;17.50;99.90;;;;;;5065681;28;20238;-71
